메인 페이지
METAR-TAF:

METAR-TAF

공항 :

이칼루이트, 누나부트, 캐나다

위도: 63-45N, 경도: 068-33W, 고도: 34m

현재 날씨관측

예보는 47분 전, 09:00시(UTC)에 발표되었습니다.
여러 방향의 바람 2kt
온도 -9°C
습도 73%
기압 1001 hPa
시정: 24.1km
고도 6700ft 상공 구름 많음
약한눈

METAR: CYFB 150900Z VRB02KT 15SM -SN BKN067 M09/M13 A2956 RMK AC7 SLP015

시각: 05:47 (09:47 UTC)

예보

예보는 4 시간 9분 전, 05:38시(UTC)에 발표되었습니다.
예보 대상 시간: 15일 06시부터 16일 06시까지 (UTC)
북서5kt
시정: 10km
고도 6000ft 상공 구름 보통
일시적
15일 06시부터 15일 11시까지 (UTC)
고도 6000ft 상공 구름 많음
15일 1100시부터 (UTC)
북동5kt
시정: 10km
고도 2000ft 상공 구름 보통
고도 6000ft 상공 구름 많음
일시적
15일 11시부터 15일 16시까지 (UTC)
시정: 10km
고도 2000ft 상공 구름 많음
고도 6000ft 상공 흐림
약한눈
전환 중
15일 13시부터 15일 15시까지 (UTC)
북서10kt
15일 1600시부터 (UTC)
북서10kt
시정: 10km
고도 6000ft 상공 구름 보통
일시적
15일 16시부터 16일 02시까지 (UTC)
시정: 10km
고도 6000ft 상공 구름 많음
약한눈
16일 0200시부터 (UTC)
서북서12kt
시정: 10km
고도 3000ft 상공 구름 보통
일시적
16일 02시부터 16일 06시까지 (UTC)
시정: 10km
고도 2000ft 상공 구름 많음
약한눈

TAF: CYFB 150538Z 1506/1606 31005KT P6SM SCT060 TEMPO 1506/1511 BKN060 FM151100 05005KT P6SM SCT020 BKN060 TEMPO 1511/1516 P6SM -SN BKN020 OVC060 BECMG 1513/1515 32010KT FM151600 32010KT P6SM SCT060 TEMPO 1516/1602 P6SM -SN BKN060 FM160200 30012KT P6SM SCT030 TEMPO 1602/1606 P6SM -SN BKN020 RMK NXT FCST BY 151200Z

4,000개 이상의 공항 관측 자료 및 예보 (METAR 및 TAF 보고).

지도상에서 검색 가능한 기상관측소가 노란 점과 빨간 점으로 표시되어 있습니다.

기상관측소 명을 보려면 표시 위로 마우스를 이동하세요.

날씨 관측과 예보를 보려면 클릭하세요.

지도 변경 : 확대하려면 엑스 표시가 있는 녹색 버튼, 축소하려면 빼기 표시가 있는 녹색 버튼, 다음 페이지의 지도를 보려면 녹색 화살표를 클릭하세요.


METAR-TAF: